Time;durP1;ratioP1;P1;durP2;ratioP2;P2;SDS_P1;SDS_P2;PMS_P1;PMS_P2;Temp;Humidity;BMP_temperature;BMP_pressure;BME280_temperature;BME280_humidity;BME280_pressure;Samples;Min_cycle;Max_cycle;Signal;HPM_P1;HPM_P2
2023/01/06 00:00:37;;;;;;;;;;;;;;;28.48;24.01;100488.03;5075298;28;1906;-18
2023/01/06 00:03:03;;;;;;;;;;;;;;;28.70;23.59;100485.25;5064429;28;1433;-18
2023/01/06 00:05:28;;;;;;;;;;;;;;;28.75;23.60;100492.75;5044609;28;1048;-18
2023/01/06 00:07:53;;;;;;;;;;;;;;;28.54;24.17;100497.25;5064350;28;1100;-18
2023/01/06 00:10:19;;;;;;;;;;;;;;;28.45;24.12;100500.09;5075639;28;1201;-18
2023/01/06 00:12:45;;;;;;;;;;;;;;;28.70;23.51;100502.34;5064191;28;1163;-18
2023/01/06 00:15:10;;;;;;;;;;;;;;;28.60;24.13;100504.56;5075808;28;1106;-18
2023/01/06 00:17:35;;;;;;;;;;;;;;;28.52;23.98;100502.84;5063994;28;1170;-18
2023/01/06 00:20:01;;;;;;;;;;;;;;;28.53;24.27;100511.81;5076249;28;1943;-18
2023/01/06 00:22:26;;;;;;;;;;;;;;;28.78;23.57;100524.88;5076006;28;1047;-18
2023/01/06 00:24:52;;;;;;;;;;;;;;;28.64;23.95;100534.78;5076104;28;1138;-18
2023/01/06 00:27:17;;;;;;;;;;;;;;;28.53;23.79;100528.88;5069980;28;1148;-18
2023/01/06 00:29:42;;;;;;;;;;;;;;;28.54;24.06;100537.84;5070140;28;1206;-18
2023/01/06 00:32:08;;;;;;;;;;;;;;;28.71;23.55;100541.88;5071206;28;1398;-18
2023/01/06 00:34:33;;;;;;;;;;;;;;;28.85;23.34;100553.66;5076461;28;1197;-18
2023/01/06 00:36:58;;;;;;;;;;;;;;;28.65;23.76;100555.38;5069715;28;1170;-18
2023/01/06 00:39:24;;;;;;;;;;;;;;;28.62;24.00;100574.72;5038214;28;1965;-18
2023/01/06 00:42:04;;;;;;;;;;;;;;;28.92;23.55;100583.47;5062710;28;1131;-18
2023/01/06 00:44:33;;;;;;;;;;;;;;;28.61;24.04;100587.44;5075949;28;1117;-18
2023/01/06 00:46:59;;;;;;;;;;;;;;;28.48;24.25;100591.69;5076089;28;1051;-18
2023/01/06 00:49:24;;;;;;;;;;;;;;;28.61;24.36;100592.84;5059998;28;1047;-18
2023/01/06 00:51:49;;;;;;;;;;;;;;;28.87;23.74;100602.19;5065863;28;1151;-18
2023/01/06 00:54:15;;;;;;;;;;;;;;;28.73;24.00;100599.38;5075464;28;1074;-18
2023/01/06 00:56:41;;;;;;;;;;;;;;;28.62;24.28;100602.63;5075482;28;1118;-18
2023/01/06 00:59:06;;;;;;;;;;;;;;;28.64;24.34;100602.44;5069629;28;1119;-18
2023/01/06 01:01:32;;;;;;;;;;;;;;;28.90;23.88;100595.50;5046796;28;1910;-18
2023/01/06 01:03:57;;;;;;;;;;;;;;;28.53;24.36;100593.00;5051424;28;1156;-18
2023/01/06 01:06:23;;;;;;;;;;;;;;;28.55;24.51;100597.16;5055562;28;1124;-18
2023/01/06 01:08:51;;;;;;;;;;;;;;;28.64;24.30;100605.13;5054019;28;1064;-18
2023/01/06 01:14:00;;;;;;;;;;;;;;;28.67;24.19;100597.47;5055825;28;1154;-18
2023/01/06 01:16:25;;;;;;;;;;;;;;;28.59;24.28;100597.63;5044671;28;1156;-18
2023/01/06 01:18:51;;;;;;;;;;;;;;;28.67;24.46;100599.31;5049418;28;1053;-18
2023/01/06 01:21:16;;;;;;;;;;;;;;;28.96;23.75;100608.28;5043629;28;1959;-18
2023/01/06 01:23:41;;;;;;;;;;;;;;;28.68;24.21;100609.97;5051457;28;1132;-18
2023/01/06 01:26:06;;;;;;;;;;;;;;;28.57;24.54;100610.50;5046611;28;1075;-18
2023/01/06 01:28:32;;;;;;;;;;;;;;;28.55;24.39;100609.84;5041694;28;1492;-18
2023/01/06 01:30:58;;;;;;;;;;;;;;;28.82;24.13;100605.47;5056028;28;1040;-18
2023/01/06 01:33:23;;;;;;;;;;;;;;;28.78;24.20;100601.47;5046771;28;1107;-18
2023/01/06 01:35:48;;;;;;;;;;;;;;;28.67;24.75;100607.44;5040264;28;1080;-18
2023/01/06 01:38:14;;;;;;;;;;;;;;;28.60;24.62;100604.69;5053419;28;1045;-18
2023/01/06 01:40:45;;;;;;;;;;;;;;;28.82;24.22;100616.31;5049506;28;1902;-18
2023/01/06 01:43:10;;;;;;;;;;;;;;;28.67;24.50;100611.00;5046213;28;981;-18
2023/01/06 01:45:36;;;;;;;;;;;;;;;28.50;24.56;100610.44;5048622;28;1091;-18
2023/01/06 01:48:03;;;;;;;;;;;;;;;28.59;24.64;100608.44;5038770;28;1165;-18
2023/01/06 01:50:49;;;;;;;;;;;;;;;28.72;24.33;100603.13;5031236;28;1159;-18
2023/01/06 01:53:35;;;;;;;;;;;;;;;28.72;24.43;100605.00;5046428;28;1015;-18
2023/01/06 01:56:01;;;;;;;;;;;;;;;28.53;24.75;100612.75;5045776;28;1191;-18
2023/01/06 01:58:27;;;;;;;;;;;;;;;28.57;24.96;100624.03;5049729;28;1049;-18
2023/01/06 02:00:53;;;;;;;;;;;;;;;28.89;24.09;100619.06;5041047;28;1910;-18
2023/01/06 02:03:18;;;;;;;;;;;;;;;28.76;24.29;100621.69;5059539;28;1152;-18
2023/01/06 02:05:46;;;;;;;;;;;;;;;28.58;24.58;100631.94;5054709;28;1118;-18
2023/01/06 02:08:30;;;;;;;;;;;;;;;28.54;24.82;100630.69;5068805;28;1127;-17
2023/01/06 02:10:55;;;;;;;;;;;;;;;28.83;24.31;100636.91;5054730;28;1595;-18
2023/01/06 02:13:20;;;;;;;;;;;;;;;28.90;24.27;100636.13;5071232;28;1064;-18
2023/01/06 02:15:46;;;;;;;;;;;;;;;28.58;24.83;100637.38;5061072;28;1063;-18
2023/01/06 02:18:17;;;;;;;;;;;;;;;28.68;24.53;100630.75;5048432;28;1071;-18
2023/01/06 02:20:45;;;;;;;;;;;;;;;28.83;24.19;100622.53;5072230;28;1909;-18
2023/01/06 02:23:14;;;;;;;;;;;;;;;28.56;24.72;100627.78;5071662;28;1054;-18
2023/01/06 02:25:39;;;;;;;;;;;;;;;28.51;24.85;100630.22;5072433;28;1084;-18
2023/01/06 02:28:23;;;;;;;;;;;;;;;28.55;24.71;100645.03;5072310;28;1209;-18
2023/01/06 02:30:54;;;;;;;;;;;;;;;28.82;24.25;100646.09;5058987;28;1190;-18
2023/01/06 02:33:21;;;;;;;;;;;;;;;28.78;24.39;100660.22;5073800;28;1071;-18
2023/01/06 02:35:46;;;;;;;;;;;;;;;28.56;24.44;100661.06;5051565;28;1166;-18
2023/01/06 02:38:14;;;;;;;;;;;;;;;28.62;24.63;100666.72;5078761;28;1083;-18
2023/01/06 02:41:06;;;;;;;;;;;;;;;28.84;24.11;100652.13;5067767;28;1901;-18
2023/01/06 02:43:36;;;;;;;;;;;;;;;28.59;24.55;100657.16;5026875;28;1103;-18
2023/01/06 02:46:05;;;;;;;;;;;;;;;28.57;24.81;100670.88;5054982;28;1091;-18
2023/01/06 02:48:30;;;;;;;;;;;;;;;28.71;24.41;100663.69;5070265;28;1052;-18
2023/01/06 02:51:12;;;;;;;;;;;;;;;28.84;24.48;100662.94;5071794;28;1100;-18
2023/01/06 02:53:40;;;;;;;;;;;;;;;28.65;24.60;100659.06;5068750;28;1005;-18
2023/01/06 02:56:05;;;;;;;;;;;;;;;28.57;24.95;100670.03;5078285;28;1425;-18
2023/01/06 02:58:31;;;;;;;;;;;;;;;28.68;24.57;100666.78;5076431;28;1024;-18
2023/01/06 03:00:58;;;;;;;;;;;;;;;28.89;24.10;100665.09;5053608;28;1902;-18
2023/01/06 03:03:23;;;;;;;;;;;;;;;28.75;24.62;100660.59;5048663;28;1096;-18
2023/01/06 03:05:50;;;;;;;;;;;;;;;28.60;24.90;100666.94;5036200;28;1035;-18
2023/01/06 03:08:17;;;;;;;;;;;;;;;28.71;24.63;100663.69;5030612;28;1105;-18
2023/01/06 03:10:42;;;;;;;;;;;;;;;28.98;24.41;100670.38;5026770;28;1183;-18
2023/01/06 03:13:26;;;;;;;;;;;;;;;28.79;24.34;100676.25;5029937;28;1157;-18
2023/01/06 03:15:51;;;;;;;;;;;;;;;28.60;24.69;100669.63;5056832;28;1044;-18
2023/01/06 03:18:17;;;;;;;;;;;;;;;28.68;24.78;100668.66;5027596;28;1128;-18
2023/01/06 03:20:42;;;;;;;;;;;;;;;28.86;24.62;100676.31;5057009;28;1901;-18
2023/01/06 03:23:07;;;;;;;;;;;;;;;29.00;24.39;100677.25;5045096;28;853;-18
2023/01/06 03:25:32;;;;;;;;;;;;;;;28.71;24.83;100679.94;5038002;28;1124;-18
2023/01/06 03:27:58;;;;;;;;;;;;;;;28.79;24.74;100678.13;5038026;28;1152;-18
2023/01/06 03:30:23;;;;;;;;;;;;;;;29.03;24.40;100684.19;5050790;28;1151;-18
2023/01/06 03:33:18;;;;;;;;;;;;;;;29.04;24.60;100683.97;5032168;28;1188;-18
2023/01/06 03:36:00;;;;;;;;;;;;;;;28.55;25.14;100685.63;5033903;28;1215;-18
2023/01/06 03:38:57;;;;;;;;;;;;;;;28.66;25.28;100684.28;5043611;28;1088;-18
2023/01/06 03:44:39;;;;;;;;;;;;;;;28.59;25.32;100690.44;5002633;28;1346;-18
2023/01/06 03:47:06;;;;;;;;;;;;;;;28.65;25.20;100688.84;5056589;28;915;-18
2023/01/06 03:49:32;;;;;;;;;;;;;;;28.79;25.31;100687.09;5054342;28;1091;-18
2023/01/06 03:52:06;;;;;;;;;;;;;;;29.14;24.43;100691.75;5028831;28;1111;-18
2023/01/06 03:54:50;;;;;;;;;;;;;;;29.01;24.53;100697.06;5052565;28;1039;-18
2023/01/06 03:57:30;;;;;;;;;;;;;;;28.45;25.74;100702.19;5050800;28;1163;-18
2023/01/06 03:59:56;;;;;;;;;;;;;;;28.63;25.32;100704.44;5032028;28;1976;-18
2023/01/06 04:02:21;;;;;;;;;;;;;;;28.81;24.98;100703.13;5054517;28;1192;-18
2023/01/06 04:05:02;;;;;;;;;;;;;;;29.04;24.50;100704.78;5077029;28;1086;-18
2023/01/06 04:07:27;;;;;;;;;;;;;;;28.35;25.92;100710.63;5062911;28;1122;-18
2023/01/06 04:09:53;;;;;;;;;;;;;;;28.64;25.31;100721.50;5069007;28;1072;-18
2023/01/06 04:15:02;;;;;;;;;;;;;;;28.91;24.58;100727.97;5056708;28;1119;-18
2023/01/06 04:17:27;;;;;;;;;;;;;;;28.40;24.78;100726.28;5063066;28;1222;-18
2023/01/06 04:19:52;;;;;;;;;;;;;;;28.07;24.70;100741.94;5063350;28;1941;-18
2023/01/06 04:22:18;;;;;;;;;;;;;;;27.68;23.65;100735.81;5075045;28;1060;-17
2023/01/06 04:24:43;;;;;;;;;;;;;;;28.11;24.12;100734.28;5076747;28;1178;-17
2023/01/06 04:27:08;;;;;;;;;;;;;;;28.26;24.19;100736.91;5063410;28;1310;-17
2023/01/06 04:29:34;;;;;;;;;;;;;;;28.32;24.30;100735.31;5063993;28;1122;-17
2023/01/06 04:31:59;;;;;;;;;;;;;;;27.67;25.03;100723.31;5062694;28;1450;-17
2023/01/06 04:34:24;;;;;;;;;;;;;;;27.58;25.02;100709.03;5068221;28;1143;-17
2023/01/06 04:36:50;;;;;;;;;;;;;;;28.02;24.60;100714.63;5069750;28;1135;-17
2023/01/06 04:39:15;;;;;;;;;;;;;;;28.35;24.47;100725.00;5056435;28;1124;-17
2023/01/06 04:41:40;;;;;;;;;;;;;;;27.98;23.14;100740.34;5061750;28;1910;-17
2023/01/06 04:44:05;;;;;;;;;;;;;;;26.49;23.19;100752.34;5064121;28;1031;-17
2023/01/06 04:46:31;;;;;;;;;;;;;;;25.86;23.74;100745.06;5069337;28;1120;-18
2023/01/06 04:48:56;;;;;;;;;;;;;;;25.00;24.21;100751.81;5068577;28;1114;-18
2023/01/06 04:51:21;;;;;;;;;;;;;;;24.71;24.34;100758.47;5057122;28;1071;-17
2023/01/06 04:53:47;;;;;;;;;;;;;;;25.36;25.15;100774.00;5055787;28;1120;-17
2023/01/06 04:56:12;;;;;;;;;;;;;;;25.71;26.17;100769.22;5056306;28;1096;-16
2023/01/06 04:58:38;;;;;;;;;;;;;;;25.64;26.51;100777.13;5061667;28;1275;-17
2023/01/06 05:01:04;;;;;;;;;;;;;;;26.09;25.76;100773.94;5056072;28;1914;-17
2023/01/06 05:03:29;;;;;;;;;;;;;;;26.50;25.14;100772.09;5067382;28;1120;-17
2023/01/06 05:05:54;;;;;;;;;;;;;;;26.63;25.13;100783.13;5062818;28;1169;-16
2023/01/06 05:08:20;;;;;;;;;;;;;;;26.32;25.72;100796.59;5075867;28;1086;-17
2023/01/06 05:10:45;;;;;;;;;;;;;;;26.65;25.72;100789.19;5064166;28;1090;-17
2023/01/06 05:13:10;;;;;;;;;;;;;;;26.85;25.77;100788.72;5065222;28;1060;-17
2023/01/06 05:15:37;;;;;;;;;;;;;;;27.09;24.95;100791.44;5068951;28;1041;-17
2023/01/06 05:18:02;;;;;;;;;;;;;;;26.84;25.85;100794.28;5067222;28;1028;-17
2023/01/06 05:20:27;;;;;;;;;;;;;;;26.85;25.72;100794.13;5072075;28;1906;-16
2023/01/06 05:22:53;;;;;;;;;;;;;;;26.92;25.50;100798.78;5066099;28;1120;-16
2023/01/06 05:25:18;;;;;;;;;;;;;;;27.09;24.55;100800.34;5075438;28;1166;-17
2023/01/06 05:27:43;;;;;;;;;;;;;;;26.78;24.25;100795.84;5076270;28;1071;-17
2023/01/06 05:30:09;;;;;;;;;;;;;;;26.55;25.63;100798.53;5072025;28;1149;-17
2023/01/06 05:32:34;;;;;;;;;;;;;;;26.88;25.84;100784.81;5056137;28;1234;-16
2023/01/06 05:35:00;;;;;;;;;;;;;;;27.02;26.03;100789.47;5062582;28;1478;-17
2023/01/06 05:37:25;;;;;;;;;;;;;;;27.04;26.34;100791.13;5057274;28;1129;-17
2023/01/06 05:39:50;;;;;;;;;;;;;;;26.83;25.71;100798.84;5061830;28;1898;-17
2023/01/06 05:42:16;;;;;;;;;;;;;;;26.71;26.40;100793.00;5062689;28;1087;-17
2023/01/06 05:44:41;;;;;;;;;;;;;;;26.80;26.52;100801.91;5062037;28;1127;-16
2023/01/06 05:47:07;;;;;;;;;;;;;;;26.95;26.15;100801.97;5075032;28;1098;-17
2023/01/06 05:49:32;;;;;;;;;;;;;;;26.77;26.44;100802.28;5062112;28;1071;-17
2023/01/06 05:51:57;;;;;;;;;;;;;;;26.85;26.56;100802.22;5062135;28;1127;-16
2023/01/06 05:54:22;;;;;;;;;;;;;;;26.84;26.61;100816.69;5076204;28;1199;-16
2023/01/06 05:56:48;;;;;;;;;;;;;;;27.02;25.98;100823.72;5068752;28;1123;-16
2023/01/06 05:59:13;;;;;;;;;;;;;;;27.06;26.14;100825.00;5061843;28;1135;-17
2023/01/06 06:01:38;;;;;;;;;;;;;;;26.76;26.50;100817.59;5064993;28;1934;-16
2023/01/06 06:04:04;;;;;;;;;;;;;;;26.86;26.37;100819.25;5059531;28;1257;-16
2023/01/06 06:06:29;;;;;;;;;;;;;;;26.92;26.26;100828.47;5064443;28;1183;-16
2023/01/06 06:08:55;;;;;;;;;;;;;;;27.14;25.83;100824.94;5054851;28;1031;-16
2023/01/06 06:11:21;;;;;;;;;;;;;;;27.58;25.87;100832.50;5055662;28;1338;-16
2023/01/06 06:13:47;;;;;;;;;;;;;;;27.15;26.22;100825.78;5054999;28;1531;-16
2023/01/06 06:16:13;;;;;;;;;;;;;;;27.12;25.93;100834.25;5066231;28;1211;-17
2023/01/06 06:18:41;;;;;;;;;;;;;;;27.16;25.84;100840.16;5075428;28;1087;-17
2023/01/06 06:21:07;;;;;;;;;;;;;;;26.69;26.98;100840.09;5078494;28;1947;-16
2023/01/06 06:23:32;;;;;;;;;;;;;;;26.78;26.88;100836.31;5068107;28;1040;-16
2023/01/06 06:25:57;;;;;;;;;;;;;;;26.94;26.75;100839.94;5078989;28;1143;-16
2023/01/06 06:28:23;;;;;;;;;;;;;;;27.04;25.92;100832.47;5078529;28;1155;-17
2023/01/06 06:30:48;;;;;;;;;;;;;;;27.28;26.22;100832.47;5078978;28;1012;-16
2023/01/06 06:33:13;;;;;;;;;;;;;;;27.09;26.51;100843.53;5061159;28;1079;-17
2023/01/06 06:35:39;;;;;;;;;;;;;;;26.73;26.13;100841.41;5069460;28;1131;-16
2023/01/06 06:38:04;;;;;;;;;;;;;;;27.05;25.96;100849.50;5065523;28;1071;-17
2023/01/06 06:40:29;;;;;;;;;;;;;;;27.20;25.59;100861.19;5078305;28;1964;-17
2023/01/06 06:42:54;;;;;;;;;;;;;;;27.27;25.57;100872.13;5074135;28;1039;-17
2023/01/06 06:45:20;;;;;;;;;;;;;;;26.97;25.98;100870.13;5058781;28;1127;-17
2023/01/06 06:47:45;;;;;;;;;;;;;;;27.12;26.11;100874.75;5075678;28;1202;-17
2023/01/06 06:50:10;;;;;;;;;;;;;;;27.11;25.81;100873.91;5078649;28;1087;-17
2023/01/06 06:52:36;;;;;;;;;;;;;;;27.07;25.91;100864.50;5061383;28;1175;-17
2023/01/06 06:55:01;;;;;;;;;;;;;;;26.90;26.84;100863.75;5069150;28;1130;-16
2023/01/06 06:57:26;;;;;;;;;;;;;;;26.90;26.80;100864.59;5073708;28;1110;-17
2023/01/06 06:59:52;;;;;;;;;;;;;;;27.13;26.13;100874.59;5066224;28;1906;-16
2023/01/06 07:02:17;;;;;;;;;;;;;;;27.43;26.32;100881.09;5065030;28;1162;-16
2023/01/06 07:04:42;;;;;;;;;;;;;;;27.32;26.24;100879.69;5070043;28;1062;-17
2023/01/06 07:07:07;;;;;;;;;;;;;;;26.99;26.69;100894.22;5071570;28;1029;-16
2023/01/06 07:09:33;;;;;;;;;;;;;;;27.13;26.64;100908.84;5066137;28;1033;-17
2023/01/06 07:11:58;;;;;;;;;;;;;;;27.24;26.84;100913.81;5070835;28;1238;-17
2023/01/06 07:14:23;;;;;;;;;;;;;;;27.40;26.93;100922.84;5078035;28;1083;-16
2023/01/06 07:16:49;;;;;;;;;;;;;;;27.12;26.09;100929.63;5064785;28;1222;-16
2023/01/06 07:19:14;;;;;;;;;;;;;;;27.09;25.96;100938.06;5069943;28;1150;-17
2023/01/06 07:21:39;;;;;;;;;;;;;;;27.15;26.48;100941.91;5058855;28;1961;-13
2023/01/06 07:24:04;;;;;;;;;;;;;;;26.99;26.04;100935.56;5077206;28;863;-12
2023/01/06 07:26:30;;;;;;;;;;;;;;;26.89;26.12;100943.06;5063425;28;1099;-12
2023/01/06 07:28:55;;;;;;;;;;;;;;;27.04;26.26;100936.91;5055889;28;1111;-12
2023/01/06 07:31:20;;;;;;;;;;;;;;;27.04;26.51;100943.16;5061922;28;1191;-12
2023/01/06 07:33:45;;;;;;;;;;;;;;;26.85;26.45;100942.56;5077401;28;1078;-12
2023/01/06 07:36:11;;;;;;;;;;;;;;;26.80;26.73;100934.16;5059979;28;1255;-12
2023/01/06 07:38:36;;;;;;;;;;;;;;;26.76;27.12;100925.56;5067464;28;1200;-13
2023/01/06 07:41:01;;;;;;;;;;;;;;;26.78;27.23;100931.63;5073338;28;1953;-12
2023/01/06 07:43:27;;;;;;;;;;;;;;;26.89;26.79;100932.25;5056997;28;1072;-11
2023/01/06 07:45:52;;;;;;;;;;;;;;;26.93;27.08;100944.38;5061114;28;1092;-12
2023/01/06 07:48:17;;;;;;;;;;;;;;;27.06;26.61;100938.41;5067569;28;1108;-11
2023/01/06 07:50:43;;;;;;;;;;;;;;;27.10;26.56;100933.50;5070406;28;1100;-11
2023/01/06 07:53:08;;;;;;;;;;;;;;;27.34;26.30;100931.66;5067336;28;1025;-11
2023/01/06 07:55:33;;;;;;;;;;;;;;;27.00;26.30;100929.16;5063608;28;1127;-11
2023/01/06 07:58:02;;;;;;;;;;;;;;;27.29;26.50;100931.38;5076216;28;1070;-11
2023/01/06 08:00:27;;;;;;;;;;;;;;;27.21;26.98;100927.69;5059669;28;1972;-11
2023/01/06 08:02:53;;;;;;;;;;;;;;;27.28;26.56;100932.41;5063729;28;1262;-11
2023/01/06 08:05:18;;;;;;;;;;;;;;;27.20;26.70;100928.72;5057491;28;1119;-11
2023/01/06 08:07:43;;;;;;;;;;;;;;;27.21;26.88;100943.06;5057251;28;1071;-11
2023/01/06 08:10:09;;;;;;;;;;;;;;;26.90;27.17;100939.31;5069912;28;1152;-11
2023/01/06 08:12:35;;;;;;;;;;;;;;;26.98;27.18;100949.22;5063323;28;1294;-11
2023/01/06 08:15:01;;;;;;;;;;;;;;;26.81;27.40;100949.31;5063604;28;1117;-11
2023/01/06 08:17:26;;;;;;;;;;;;;;;26.86;27.76;100951.50;5056900;28;1059;-11
2023/01/06 08:19:51;;;;;;;;;;;;;;;26.91;26.99;100957.19;5055897;28;1901;-12
2023/01/06 08:22:16;;;;;;;;;;;;;;;26.69;27.27;100972.31;5060230;28;1353;-11
2023/01/06 08:24:42;;;;;;;;;;;;;;;26.62;27.46;100959.53;5056928;28;865;-12
2023/01/06 08:27:07;;;;;;;;;;;;;;;26.72;27.13;100975.50;5066694;28;1155;-11
2023/01/06 08:29:33;;;;;;;;;;;;;;;26.67;27.58;100987.84;5064402;28;1131;-12
2023/01/06 08:31:58;;;;;;;;;;;;;;;26.66;27.50;100995.06;5056544;28;1103;-11
2023/01/06 08:34:23;;;;;;;;;;;;;;;27.06;27.51;101003.22;5056331;28;1127;-12
2023/01/06 08:36:48;;;;;;;;;;;;;;;27.33;26.90;101011.00;5056644;28;1068;-12
2023/01/06 08:39:14;;;;;;;;;;;;;;;27.52;26.02;101015.13;5062456;28;1400;-12
2023/01/06 08:41:39;;;;;;;;;;;;;;;27.53;27.01;101008.69;5075187;28;1882;-12
2023/01/06 08:44:05;;;;;;;;;;;;;;;27.34;26.34;101004.59;5074008;28;1138;-11
2023/01/06 08:46:30;;;;;;;;;;;;;;;27.44;26.97;101007.06;5056707;28;1099;-12
2023/01/06 08:48:56;;;;;;;;;;;;;;;27.00;26.62;101006.59;5056916;28;1068;-11
2023/01/06 08:51:22;;;;;;;;;;;;;;;26.85;27.54;100996.53;5071255;28;1407;-12
2023/01/06 08:53:48;;;;;;;;;;;;;;;26.83;27.19;101003.97;5067740;28;1456;-12
2023/01/06 08:56:13;;;;;;;;;;;;;;;26.87;27.44;101004.47;5064524;28;1112;-11
2023/01/06 08:58:39;;;;;;;;;;;;;;;26.81;27.00;101000.59;5060975;28;1210;-11
2023/01/06 09:01:05;;;;;;;;;;;;;;;26.84;26.90;101000.25;5065482;28;1918;-11
2023/01/06 09:03:30;;;;;;;;;;;;;;;26.84;27.55;100997.53;5076270;28;1007;-11
2023/01/06 09:05:56;;;;;;;;;;;;;;;26.78;27.11;101000.94;5071038;28;1082;-11
2023/01/06 09:08:21;;;;;;;;;;;;;;;26.97;26.81;101010.50;5063985;28;1167;-12
2023/01/06 09:10:47;;;;;;;;;;;;;;;26.95;27.00;100998.19;5055756;28;1159;-11
2023/01/06 09:13:12;;;;;;;;;;;;;;;26.73;27.41;100998.78;5058590;28;1238;-11
2023/01/06 09:15:40;;;;;;;;;;;;;;;26.99;27.04;100980.63;5072481;28;1339;-12
2023/01/06 09:18:07;;;;;;;;;;;;;;;27.03;27.31;100981.97;5062870;28;972;-12
2023/01/06 09:20:33;;;;;;;;;;;;;;;27.13;27.32;100988.00;5056097;28;1980;-11
2023/01/06 09:22:58;;;;;;;;;;;;;;;26.98;27.41;100985.19;5067986;28;1533;-11
2023/01/06 09:25:23;;;;;;;;;;;;;;;27.01;27.21;100983.97;5064631;28;1172;-11
2023/01/06 09:27:48;;;;;;;;;;;;;;;27.14;27.14;100983.44;5056374;28;1016;-11
2023/01/06 09:30:14;;;;;;;;;;;;;;;27.32;26.90;100990.41;5057033;28;1068;-12
2023/01/06 09:32:39;;;;;;;;;;;;;;;27.17;26.25;100990.34;5063076;28;1005;-11
2023/01/06 09:35:04;;;;;;;;;;;;;;;26.72;27.16;100989.00;5069323;28;1128;-11
2023/01/06 09:37:30;;;;;;;;;;;;;;;26.78;27.00;100980.22;5067375;28;1212;-12
2023/01/06 09:39:55;;;;;;;;;;;;;;;26.69;27.06;100986.66;5061511;28;1898;-11
2023/01/06 09:42:35;;;;;;;;;;;;;;;26.54;27.04;100986.53;5073465;28;1023;-12
2023/01/06 09:45:03;;;;;;;;;;;;;;;26.63;26.76;100988.19;5048648;28;1450;-11
2023/01/06 09:47:29;;;;;;;;;;;;;;;26.57;26.63;100980.78;5065603;28;1126;-11
2023/01/06 09:50:02;;;;;;;;;;;;;;;26.54;26.77;100978.44;5050130;28;1243;-11
2023/01/06 09:52:32;;;;;;;;;;;;;;;26.58;26.48;100981.63;5072027;28;1195;-11
2023/01/06 09:55:04;;;;;;;;;;;;;;;26.58;26.45;100979.78;5041320;28;1012;-11
2023/01/06 09:57:38;;;;;;;;;;;;;;;26.57;26.38;100977.25;5054258;28;1195;-12
2023/01/06 10:00:04;;;;;;;;;;;;;;;26.48;26.56;100968.34;5042330;28;1910;-12
2023/01/06 10:02:35;;;;;;;;;;;;;;;26.45;26.49;100974.94;5059068;28;896;-11
2023/01/06 10:05:00;;;;;;;;;;;;;;;26.53;26.10;100974.91;5069679;28;999;-11
2023/01/06 10:07:32;;;;;;;;;;;;;;;26.39;26.46;100968.34;5062720;28;1203;-12
2023/01/06 10:10:16;;;;;;;;;;;;;;;26.56;26.19;100978.28;5041750;28;1040;-12
2023/01/06 10:13:20;;;;;;;;;;;;;;;26.63;26.16;100979.25;5062006;28;989;-11
2023/01/06 10:15:57;;;;;;;;;;;;;;;26.72;26.12;100986.31;5016100;28;1124;-11
2023/01/06 10:18:22;;;;;;;;;;;;;;;26.61;26.04;100989.38;5016893;28;1076;-12
2023/01/06 10:21:08;;;;;;;;;;;;;;;26.71;26.05;100983.78;5031493;28;1922;-12
2023/01/06 10:23:52;;;;;;;;;;;;;;;26.93;26.18;100982.16;5041193;28;991;-12
2023/01/06 10:26:28;;;;;;;;;;;;;;;27.07;26.20;100977.06;5059118;28;892;-12
2023/01/06 10:28:53;;;;;;;;;;;;;;;27.16;26.06;100977.88;5065282;28;1091;-11
2023/01/06 10:31:26;;;;;;;;;;;;;;;27.31;25.78;100983.34;5051504;28;1307;-11
2023/01/06 10:33:52;;;;;;;;;;;;;;;27.25;25.72;100977.63;5076505;28;1155;-11
2023/01/06 10:36:19;;;;;;;;;;;;;;;26.97;25.44;100980.81;5072443;28;1246;-30
2023/01/06 10:38:51;;;;;;;;;;;;;;;26.60;25.51;100985.84;5045942;28;881;-29
2023/01/06 10:41:35;;;;;;;;;;;;;;;26.75;25.98;100987.81;5066294;28;1979;-29
2023/01/06 10:44:00;;;;;;;;;;;;;;;26.83;25.69;100990.47;5072450;28;1115;-28
2023/01/06 10:46:27;;;;;;;;;;;;;;;26.64;25.60;100987.16;5040665;28;1011;-31
2023/01/06 10:48:53;;;;;;;;;;;;;;;26.65;25.55;100993.41;5059534;28;1198;-33
2023/01/06 10:51:31;;;;;;;;;;;;;;;26.73;25.60;101004.19;5075077;28;1252;-30
2023/01/06 10:53:56;;;;;;;;;;;;;;;26.88;25.58;100995.34;5048046;28;1183;-30
2023/01/06 10:56:22;;;;;;;;;;;;;;;26.74;25.48;101003.16;5058282;28;1087;-31
2023/01/06 10:58:57;;;;;;;;;;;;;;;26.98;25.63;101001.38;5049401;28;1191;-31
2023/01/06 11:01:23;;;;;;;;;;;;;;;27.08;25.49;100993.09;5071216;28;1894;-12
2023/01/06 11:04:02;;;;;;;;;;;;;;;27.11;25.87;101008.09;5058428;28;1037;-12
2023/01/06 11:06:28;;;;;;;;;;;;;;;27.19;25.86;101001.81;5067885;28;1347;-32
2023/01/06 11:08:53;;;;;;;;;;;;;;;27.35;26.08;100999.00;5049072;28;1436;-32
2023/01/06 11:11:18;;;;;;;;;;;;;;;27.32;25.74;101001.22;5071696;28;1082;-32
2023/01/06 11:13:51;;;;;;;;;;;;;;;27.45;25.44;101001.47;5041095;28;1032;-35
2023/01/06 11:16:20;;;;;;;;;;;;;;;27.31;25.85;100996.84;5058349;28;1167;-29
2023/01/06 11:19:05;;;;;;;;;;;;;;;27.41;26.08;100996.63;5047691;28;1210;-30
2023/01/06 11:21:40;;;;;;;;;;;;;;;27.43;24.90;100998.09;5057591;28;1953;-30
2023/01/06 11:24:14;;;;;;;;;;;;;;;27.57;25.28;101001.91;5057438;28;1184;-30
2023/01/06 11:26:42;;;;;;;;;;;;;;;27.60;25.12;100996.13;5042010;28;1157;-33
2023/01/06 11:29:15;;;;;;;;;;;;;;;27.71;24.62;101002.19;5068553;28;1159;-29
2023/01/06 11:31:41;;;;;;;;;;;;;;;27.84;24.68;101007.78;5073500;28;1509;-12
2023/01/06 11:34:14;;;;;;;;;;;;;;;27.60;24.48;101003.41;5046865;28;1247;-12
2023/01/06 11:36:41;;;;;;;;;;;;;;;27.58;24.98;101005.44;5072941;28;1508;-12
2023/01/06 11:39:11;;;;;;;;;;;;;;;27.62;24.82;101018.44;5049590;28;918;-12
2023/01/06 11:41:37;;;;;;;;;;;;;;;27.53;25.00;101015.97;5076344;28;1886;-35
2023/01/06 11:44:05;;;;;;;;;;;;;;;27.59;25.00;101009.84;5050558;28;968;-34
2023/01/06 11:46:31;;;;;;;;;;;;;;;27.44;24.87;101021.41;5057132;28;1044;-33
2023/01/06 11:49:07;;;;;;;;;;;;;;;27.50;24.45;101019.84;5057830;28;1013;-30
2023/01/06 11:51:41;;;;;;;;;;;;;;;27.60;24.49;101016.91;5065547;28;980;-34
2023/01/06 11:54:19;;;;;;;;;;;;;;;27.59;24.52;101026.06;5074778;28;1127;-36
2023/01/06 11:56:55;;;;;;;;;;;;;;;27.58;24.25;101027.06;5067879;28;1139;-30
2023/01/06 11:59:21;;;;;;;;;;;;;;;27.73;24.73;101033.41;5058015;28;1284;-34
2023/01/06 12:01:49;;;;;;;;;;;;;;;27.53;24.65;101034.88;5058486;28;1975;-33
2023/01/06 12:04:17;;;;;;;;;;;;;;;27.48;24.33;101028.13;5059758;28;1043;-32
2023/01/06 12:06:42;;;;;;;;;;;;;;;27.46;24.55;101026.66;5053899;28;1147;-12
2023/01/06 12:09:08;;;;;;;;;;;;;;;27.42;25.46;101036.97;5051728;28;1008;-12
2023/01/06 12:11:52;;;;;;;;;;;;;;;27.20;25.62;101035.88;5063731;28;1175;-12
2023/01/06 12:14:27;;;;;;;;;;;;;;;27.14;25.92;101042.84;5066690;28;1078;-12
2023/01/06 12:17:05;;;;;;;;;;;;;;;27.22;25.61;101047.38;5063817;28;1116;-32
2023/01/06 12:19:32;;;;;;;;;;;;;;;27.45;25.66;101035.75;5063465;28;1072;-31
2023/01/06 12:21:58;;;;;;;;;;;;;;;27.36;25.49;101043.09;5057897;28;1902;-31
2023/01/06 12:24:23;;;;;;;;;;;;;;;27.37;24.98;101042.06;5054095;28;1207;-30
2023/01/06 12:26:48;;;;;;;;;;;;;;;27.13;25.84;101044.69;5068102;28;914;-27
2023/01/06 12:29:15;;;;;;;;;;;;;;;27.24;25.62;101046.16;5058126;28;1051;-34
2023/01/06 12:31:42;;;;;;;;;;;;;;;27.28;25.63;101045.84;5050477;28;1182;-29
2023/01/06 12:34:22;;;;;;;;;;;;;;;27.23;25.19;101052.59;5052364;28;1183;-31
2023/01/06 12:36:47;;;;;;;;;;;;;;;27.37;25.57;101050.16;5038596;28;1084;-29
2023/01/06 12:39:16;;;;;;;;;;;;;;;27.21;25.12;101053.78;5075465;28;1107;-31
2023/01/06 12:42:01;;;;;;;;;;;;;;;27.09;25.72;101056.84;5056863;28;1968;-11
2023/01/06 12:44:36;;;;;;;;;;;;;;;27.34;25.36;101062.13;5064328;28;1409;-11
2023/01/06 12:47:16;;;;;;;;;;;;;;;27.41;25.34;101058.75;5066744;28;826;-11
2023/01/06 12:49:49;;;;;;;;;;;;;;;27.26;25.74;101054.09;5058504;28;1116;-12
2023/01/06 12:52:16;;;;;;;;;;;;;;;27.14;26.07;101061.75;5040709;28;1411;-12
2023/01/06 12:54:42;;;;;;;;;;;;;;;27.09;26.10;101070.34;5044798;28;966;-12
2023/01/06 12:57:09;;;;;;;;;;;;;;;27.22;25.91;101066.28;5076541;28;1034;-12
2023/01/06 12:59:44;;;;;;;;;;;;;;;27.11;26.32;101064.81;5043519;28;1521;-12